createdAt,value
2022-07-29T00:00:15.545Z,99370.69
2022-07-29T00:02:42.427Z,99381.16
2022-07-29T00:05:10.898Z,99374.28
2022-07-29T00:07:37.711Z,99374.41
2022-07-29T00:10:05.377Z,99377.94
2022-07-29T00:12:32.302Z,99364.84
2022-07-29T00:14:59.176Z,99379.97
2022-07-29T00:17:26.465Z,99365.19
2022-07-29T00:19:53.733Z,99384.47
2022-07-29T00:22:21.405Z,99376.78
2022-07-29T00:24:49.764Z,99382.09
2022-07-29T00:27:17.405Z,99385.03
2022-07-29T00:29:44.204Z,99388.56
2022-07-29T00:32:11.116Z,99393.06
2022-07-29T00:34:59.638Z,99389.66
2022-07-29T00:37:26.750Z,99393.47
2022-07-29T00:39:53.606Z,99384.91
2022-07-29T00:42:26.252Z,99389.28
2022-07-29T00:44:53.045Z,99390.22
2022-07-29T00:47:20.046Z,99392.13
2022-07-29T00:49:47.098Z,99408.72
2022-07-29T00:52:16.872Z,99400.91
2022-07-29T00:54:45.014Z,99407.09
2022-07-29T00:57:12.776Z,99403.59
2022-07-29T00:59:42.188Z,99404.56
2022-07-29T01:02:09.061Z,99411.69
2022-07-29T01:04:36.237Z,99412.59
2022-07-29T01:07:04.240Z,99413.56
2022-07-29T01:09:40.864Z,99413.50
2022-07-29T01:12:22.624Z,99411.75
2022-07-29T01:14:50.958Z,99411.16
2022-07-29T01:17:37.891Z,99418.84
2022-07-29T01:20:31.604Z,99405.19
2022-07-29T01:23:08.067Z,99414.03
2022-07-29T01:25:40.856Z,99415.84
2022-07-29T01:28:45.394Z,99419.25
2022-07-29T01:31:24.975Z,99421.19
2022-07-29T01:33:59.854Z,99412.50
2022-07-29T01:36:49.802Z,99418.50
2022-07-29T01:39:22.561Z,99415.22
2022-07-29T01:42:01.114Z,99416.94
2022-07-29T01:44:34.314Z,99419.69
2022-07-29T01:47:06.594Z,99423.22
2022-07-29T01:49:37.833Z,99423.28
2022-07-29T01:52:19.993Z,99429.31
2022-07-29T01:54:55.188Z,99423.28
2022-07-29T01:57:34.334Z,99431.19
2022-07-29T02:00:02.288Z,99414.78
2022-07-29T02:02:33.045Z,99420.03
2022-07-29T02:05:03.424Z,99424.50
2022-07-29T02:07:33.983Z,99420.19
2022-07-29T02:10:14.280Z,99426.22
2022-07-29T02:12:43.566Z,99422.84
2022-07-29T02:15:37.438Z,99425.53
2022-07-29T02:18:26.027Z,99420.28
2022-07-29T02:20:56.401Z,99426.50
2022-07-29T02:23:25.193Z,99428.31
2022-07-29T02:25:56.043Z,99436.22
2022-07-29T02:28:25.465Z,99431.94
2022-07-29T02:31:00.135Z,99437.00
2022-07-29T02:33:28.422Z,99437.97
2022-07-29T02:35:57.903Z,99443.19
2022-07-29T02:38:45.011Z,99445.75
2022-07-29T02:41:16.602Z,99441.31
2022-07-29T02:43:46.006Z,99422.13
2022-07-29T02:46:28.449Z,99435.06
2022-07-29T02:49:26.343Z,99435.03
2022-07-29T02:52:01.330Z,99427.97
2022-07-29T02:54:40.272Z,99435.69
2022-07-29T02:57:23.176Z,99431.13
2022-07-29T02:59:54.128Z,99432.78
2022-07-29T03:02:22.586Z,99442.19
2022-07-29T03:04:51.337Z,99442.13
2022-07-29T03:07:21.475Z,99426.38
2022-07-29T03:09:48.911Z,99431.50
2022-07-29T03:12:17.080Z,99439.97
2022-07-29T03:14:44.789Z,99436.47
2022-07-29T03:17:12.444Z,99423.19
2022-07-29T03:19:40.078Z,99426.56
2022-07-29T03:22:07.541Z,99424.66
2022-07-29T03:24:36.625Z,99423.59
2022-07-29T03:27:05.058Z,99433.97
2022-07-29T03:29:33.139Z,99427.72
2022-07-29T03:32:07.131Z,99429.22
2022-07-29T03:34:34.628Z,99429.97
2022-07-29T03:37:01.588Z,99428.09
2022-07-29T03:39:35.337Z,99433.06
2022-07-29T03:42:03.366Z,99434.84
2022-07-29T03:44:32.163Z,99421.59
2022-07-29T03:47:02.960Z,99437.13
2022-07-29T03:49:32.118Z,99439.56
2022-07-29T03:51:59.359Z,99437.69
2022-07-29T03:54:28.539Z,99432.97
2022-07-29T03:56:56.235Z,99439.94
2022-07-29T03:59:24.035Z,99440.72
2022-07-29T04:01:51.585Z,99446.75
2022-07-29T04:04:19.374Z,99447.56
2022-07-29T04:06:48.133Z,99449.19
2022-07-29T04:09:15.817Z,99445.78
2022-07-29T04:12:02.587Z,99450.88
2022-07-29T04:14:33.409Z,99457.75
2022-07-29T04:17:01.993Z,99451.50
2022-07-29T04:19:36.538Z,99457.44
2022-07-29T04:22:03.565Z,99452.00
2022-07-29T04:24:30.517Z,99452.03
2022-07-29T04:26:57.404Z,99461.75
2022-07-29T04:29:24.269Z,99468.91
2022-07-29T04:31:51.198Z,99471.66
2022-07-29T04:34:18.789Z,99461.28
2022-07-29T04:36:48.561Z,99473.56
2022-07-29T04:39:20.705Z,99468.41
2022-07-29T04:41:50.385Z,99475.38
2022-07-29T04:44:17.679Z,99476.13
2022-07-29T04:46:45.896Z,99469.63
2022-07-29T04:49:12.968Z,99471.16
2022-07-29T04:51:40.201Z,99483.41
2022-07-29T04:54:09.358Z,99479.94
2022-07-29T04:56:36.313Z,99471.94
2022-07-29T04:59:03.228Z,99472.59
2022-07-29T05:01:30.189Z,99462.81
2022-07-29T05:04:00.301Z,99470.53
2022-07-29T05:06:27.760Z,99468.50
2022-07-29T05:08:54.602Z,99479.97
2022-07-29T05:11:24.949Z,99486.34
2022-07-29T05:13:54.114Z,99473.25
2022-07-29T05:16:21.175Z,99466.88
2022-07-29T05:18:48.169Z,99487.53
2022-07-29T05:21:14.971Z,99484.00
2022-07-29T05:23:41.798Z,99486.72
2022-07-29T05:26:08.677Z,99482.19
2022-07-29T05:28:38.826Z,99473.81
2022-07-29T05:31:08.923Z,99477.38
2022-07-29T05:33:37.117Z,99480.84
2022-07-29T05:36:08.031Z,99477.28
2022-07-29T05:38:38.391Z,99471.16
2022-07-29T05:41:08.841Z,99491.31
2022-07-29T05:43:35.681Z,99486.88
2022-07-29T05:46:03.495Z,99469.19
2022-07-29T05:48:30.465Z,99481.13
2022-07-29T05:50:57.410Z,99472.34
2022-07-29T05:53:24.316Z,99479.22
2022-07-29T05:55:51.662Z,99484.28
2022-07-29T05:58:18.734Z,99471.00
2022-07-29T06:00:46.383Z,99465.47
2022-07-29T06:03:13.563Z,99467.16
2022-07-29T06:05:40.458Z,99462.47
2022-07-29T06:08:08.334Z,99484.81
2022-07-29T06:10:38.916Z,99491.75
2022-07-29T06:13:05.730Z,99477.97
2022-07-29T06:15:32.796Z,99466.41
2022-07-29T06:18:01.976Z,99459.72
2022-07-29T06:20:33.197Z,99461.81
2022-07-29T06:23:00.557Z,99463.91
2022-07-29T06:25:31.787Z,99458.38
2022-07-29T06:27:58.928Z,99467.06
2022-07-29T06:30:26.005Z,99471.56
2022-07-29T06:32:53.168Z,99460.00
2022-07-29T06:35:39.149Z,99458.97
2022-07-29T06:38:30.511Z,99462.91
2022-07-29T06:41:03.689Z,99466.72
2022-07-29T06:43:52.543Z,99456.66
2022-07-29T06:46:23.395Z,99456.28
2022-07-29T06:48:51.335Z,99463.38
2022-07-29T06:51:22.739Z,99463.50
2022-07-29T06:54:00.607Z,99451.97
2022-07-29T06:56:38.613Z,99458.66
2022-07-29T06:59:08.388Z,99455.88
2022-07-29T07:01:36.304Z,99457.34
2022-07-29T07:04:03.368Z,99462.34
2022-07-29T07:06:30.199Z,99436.63
2022-07-29T07:08:57.155Z,99461.66
2022-07-29T07:11:24.087Z,99450.63
2022-07-29T07:13:50.953Z,99451.81
2022-07-29T07:16:18.159Z,99452.38
2022-07-29T07:18:46.542Z,99454.81
2022-07-29T07:21:19.397Z,99458.03
2022-07-29T07:23:47.266Z,99461.63
2022-07-29T07:26:14.615Z,99458.22
2022-07-29T07:28:41.479Z,99448.47
2022-07-29T07:31:08.398Z,99447.97
2022-07-29T07:33:35.188Z,99454.84
2022-07-29T07:36:02.013Z,99455.69
2022-07-29T07:38:29.153Z,99450.28
2022-07-29T07:40:56.026Z,99436.31
2022-07-29T07:43:23.689Z,99436.06
2022-07-29T07:45:50.707Z,99433.75
2022-07-29T07:48:17.626Z,99437.03
2022-07-29T07:50:44.906Z,99428.06
2022-07-29T07:53:12.130Z,99434.72
2022-07-29T07:58:30.426Z,99446.44
2022-07-29T08:00:57.335Z,99420.59
2022-07-29T08:03:26.450Z,99437.41
2022-07-29T08:05:55.332Z,99447.66
2022-07-29T08:08:24.946Z,99446.53
2022-07-29T08:10:54.481Z,99441.53
2022-07-29T08:13:22.802Z,99444.47
2022-07-29T08:15:58.651Z,99437.75
2022-07-29T08:18:27.490Z,99424.31
2022-07-29T08:20:54.657Z,99368.22
2022-07-29T08:23:22.391Z,99362.94
2022-07-29T08:25:50.329Z,99395.03
2022-07-29T08:28:18.302Z,99369.06
2022-07-29T08:30:45.421Z,99381.53
2022-07-29T08:33:12.321Z,99393.88
2022-07-29T08:35:40.005Z,99411.28
2022-07-29T08:38:06.899Z,99386.66
2022-07-29T08:40:33.952Z,99374.41
2022-07-29T08:43:07.021Z,99401.53
2022-07-29T08:45:47.979Z,99332.25
2022-07-29T08:48:21.632Z,99374.53
2022-07-29T08:50:51.037Z,99368.69
2022-07-29T08:53:19.054Z,99364.81
2022-07-29T08:55:49.031Z,99310.34
2022-07-29T08:58:16.580Z,99294.72
2022-07-29T09:00:52.201Z,99348.66
2022-07-29T09:03:25.643Z,99366.53
2022-07-29T09:05:53.113Z,99280.59
2022-07-29T09:08:21.174Z,99270.56
2022-07-29T09:10:48.341Z,99303.91
2022-07-29T09:13:15.215Z,99290.97
2022-07-29T09:15:42.056Z,99317.34
2022-07-29T09:18:28.948Z,99310.72
2022-07-29T09:21:14.409Z,99347.78
2022-07-29T09:23:42.744Z,99356.03
2022-07-29T09:26:09.545Z,99373.13
2022-07-29T09:28:43.411Z,99389.25
2022-07-29T09:31:10.478Z,99388.34
2022-07-29T09:33:40.306Z,99353.31
2022-07-29T09:36:09.284Z,99365.34
2022-07-29T09:38:38.038Z,99361.44
2022-07-29T09:41:06.821Z,99338.44
2022-07-29T09:43:35.018Z,99378.00
2022-07-29T09:46:15.075Z,99322.09
2022-07-29T09:48:42.211Z,99312.31
2022-07-29T09:51:26.942Z,99261.41
2022-07-29T09:54:29.025Z,99241.41
2022-07-29T09:56:56.875Z,99227.59
2022-07-29T09:59:27.434Z,99199.47
2022-07-29T10:01:55.199Z,99223.31
2022-07-29T10:04:22.567Z,99190.50
2022-07-29T10:07:04.625Z,99201.88
2022-07-29T10:09:33.226Z,99197.50
2022-07-29T10:12:12.052Z,99178.53
2022-07-29T10:14:39.772Z,99174.28
2022-07-29T10:17:08.015Z,99157.56
2022-07-29T10:19:37.147Z,99112.38
2022-07-29T10:22:09.629Z,99127.47
2022-07-29T10:24:38.405Z,99168.63
2022-07-29T10:27:07.924Z,99186.19
2022-07-29T10:29:35.451Z,99108.50
2022-07-29T10:32:45.827Z,98989.41
2022-07-29T10:35:37.341Z,98933.63
2022-07-29T10:38:40.289Z,98783.13
2022-07-29T10:41:46.981Z,98675.13
2022-07-29T10:44:17.319Z,98650.69
2022-07-29T10:46:47.387Z,98644.47
2022-07-29T10:49:18.401Z,98608.72
2022-07-29T10:51:51.301Z,98592.19
2022-07-29T10:54:19.586Z,98652.06
2022-07-29T10:56:47.767Z,98639.78
2022-07-29T10:59:21.479Z,98739.91
2022-07-29T11:01:53.744Z,98731.56
2022-07-29T11:04:44.130Z,98825.56
2022-07-29T11:07:12.266Z,98825.09
2022-07-29T11:09:39.676Z,98804.16
2022-07-29T11:12:47.940Z,98794.06
2022-07-29T11:15:19.824Z,98727.78
2022-07-29T11:17:59.520Z,98693.66
2022-07-29T11:23:39.707Z,98627.16
2022-07-29T11:26:19.096Z,98555.78
2022-07-29T11:28:54.478Z,98590.00
2022-07-29T11:31:43.018Z,98636.69
2022-07-29T11:34:27.954Z,98678.66
2022-07-29T11:37:10.916Z,98745.53
2022-07-29T11:39:41.609Z,98807.50
2022-07-29T11:45:43.921Z,98937.41
2022-07-29T11:48:29.541Z,98932.56
2022-07-29T11:50:49.380Z,98912.03
2022-07-29T11:53:17.287Z,98896.94
2022-07-29T11:55:50.795Z,98894.13
2022-07-29T12:01:18.615Z,98924.09
2022-07-29T12:03:45.662Z,98944.00
2022-07-29T12:06:14.997Z,98987.75
2022-07-29T12:07:01.819Z,98891.53
2022-07-29T12:08:46.034Z,99041.53
2022-07-29T12:11:21.305Z,99062.81
2022-07-29T12:13:49.263Z,99073.81
2022-07-29T12:16:26.164Z,99069.88
2022-07-29T12:19:02.447Z,99033.38
2022-07-29T12:21:53.875Z,99034.50
2022-07-29T12:24:26.677Z,99044.66
2022-07-29T12:27:00.856Z,99040.59
2022-07-29T12:29:34.868Z,99042.75
2022-07-29T12:32:05.383Z,99034.16
2022-07-29T12:34:32.978Z,98954.38
2022-07-29T12:37:00.240Z,98823.16
2022-07-29T12:39:28.994Z,98799.97
2022-07-29T12:42:04.631Z,98739.13
2022-07-29T12:44:52.268Z,98764.16
2022-07-29T12:47:20.866Z,98813.31
2022-07-29T12:49:49.115Z,98836.03
2022-07-29T12:52:30.495Z,98868.66
2022-07-29T12:54:57.960Z,98916.13
2022-07-29T12:57:25.042Z,98935.81
2022-07-29T13:00:04.813Z,98957.31
2022-07-29T13:02:31.861Z,98904.38
2022-07-29T13:05:00.666Z,98841.56
2022-07-29T13:07:55.804Z,98860.06
2022-07-29T13:10:24.110Z,98877.56
2022-07-29T13:13:04.841Z,98921.69
2022-07-29T13:15:32.260Z,98934.91
2022-07-29T13:18:00.496Z,98899.47
2022-07-29T13:20:32.664Z,98915.00
2022-07-29T13:23:01.394Z,98881.81
2022-07-29T13:25:31.669Z,98828.94
2022-07-29T13:27:59.949Z,98768.28
2022-07-29T13:30:26.860Z,98704.16
2022-07-29T13:32:54.318Z,98661.50
2022-07-29T13:35:21.474Z,98573.59
2022-07-29T13:37:48.727Z,98549.94
2022-07-29T13:40:18.986Z,98523.97
2022-07-29T13:42:45.918Z,98459.44
2022-07-29T13:45:14.033Z,98393.81
2022-07-29T13:47:44.783Z,98405.50
2022-07-29T13:50:14.591Z,98328.34
2022-07-29T13:52:41.445Z,98339.88
2022-07-29T13:55:09.196Z,98380.91
2022-07-29T13:57:36.546Z,98438.47
2022-07-29T14:00:03.711Z,98457.34
2022-07-29T14:02:30.731Z,98472.44
2022-07-29T14:04:57.600Z,98457.19
2022-07-29T14:07:24.533Z,98443.16
2022-07-29T14:09:52.217Z,98414.50
2022-07-29T14:12:20.113Z,98415.38
2022-07-29T14:14:47.215Z,98402.03
2022-07-29T14:17:14.675Z,98361.34
2022-07-29T14:19:41.639Z,98414.41
2022-07-29T14:22:09.949Z,98481.78
2022-07-29T14:24:38.505Z,98572.84
2022-07-29T14:27:07.240Z,98618.25
2022-07-29T14:29:36.998Z,98685.13
2022-07-29T14:32:07.798Z,98740.44
2022-07-29T14:34:35.873Z,98803.44
2022-07-29T14:37:03.877Z,98839.06
2022-07-29T14:39:31.853Z,98857.16
2022-07-29T14:41:59.631Z,98870.91
2022-07-29T14:44:32.069Z,98831.88
2022-07-29T14:47:07.852Z,98770.38
2022-07-29T14:49:35.929Z,98713.88
2022-07-29T14:52:03.588Z,98667.28
2022-07-29T14:54:31.807Z,98727.53
2022-07-29T14:56:58.960Z,98761.13
2022-07-29T14:59:26.962Z,98779.44
2022-07-29T15:01:53.910Z,98778.22
2022-07-29T15:04:21.205Z,98772.72
2022-07-29T15:06:48.238Z,98801.97
2022-07-29T15:09:15.188Z,98813.47
2022-07-29T15:11:42.025Z,98826.03
2022-07-29T15:14:08.859Z,98823.38
2022-07-29T15:16:40.066Z,98847.84
2022-07-29T15:19:11.122Z,98866.25
2022-07-29T15:21:41.378Z,98865.19
2022-07-29T15:24:15.725Z,98885.19
2022-07-29T15:26:43.489Z,98919.50
2022-07-29T15:29:10.691Z,98924.34
2022-07-29T15:31:37.740Z,98945.09
2022-07-29T15:34:06.262Z,98974.06
2022-07-29T15:36:51.625Z,98993.56
2022-07-29T15:39:20.565Z,99025.47
2022-07-29T15:41:47.567Z,99047.59
2022-07-29T15:44:14.487Z,99073.75
2022-07-29T15:47:00.344Z,99112.25
2022-07-29T15:49:48.667Z,99117.66
2022-07-29T15:52:25.122Z,99155.81
2022-07-29T15:54:55.212Z,99174.63
2022-07-29T15:57:22.183Z,99193.75
2022-07-29T15:59:52.127Z,99212.28
2022-07-29T16:02:19.209Z,99231.75
2022-07-29T16:04:46.140Z,99282.09
2022-07-29T16:07:14.167Z,99333.53
2022-07-29T16:09:41.966Z,99434.78
2022-07-29T16:12:15.071Z,99479.50
2022-07-29T16:14:44.498Z,99534.16
2022-07-29T16:17:15.020Z,99570.28
2022-07-29T16:19:43.713Z,99588.09
2022-07-29T16:22:10.995Z,99631.16
2022-07-29T16:24:38.993Z,99650.28
2022-07-29T16:27:06.340Z,99688.94
2022-07-29T16:29:33.211Z,99687.56
2022-07-29T16:32:01.119Z,99718.91
2022-07-29T16:34:28.074Z,99730.84
2022-07-29T16:36:54.972Z,99738.19
2022-07-29T16:39:21.784Z,99757.03
2022-07-29T16:41:48.588Z,99775.19
2022-07-29T16:44:16.034Z,99790.34
2022-07-29T16:46:46.183Z,99810.66
2022-07-29T16:49:19.453Z,99823.34
2022-07-29T16:51:47.922Z,99825.28
2022-07-29T16:54:14.872Z,99841.25
2022-07-29T16:56:41.810Z,99846.69
2022-07-29T16:59:08.675Z,99858.38
2022-07-29T17:01:35.538Z,99884.00
2022-07-29T17:04:08.708Z,99891.25
2022-07-29T17:06:40.586Z,99898.50
2022-07-29T17:09:08.655Z,99899.16
2022-07-29T17:11:53.393Z,99904.16
2022-07-29T17:14:28.487Z,99913.00
2022-07-29T17:17:02.006Z,99898.63
2022-07-29T17:19:31.252Z,99906.53
2022-07-29T17:22:06.391Z,99906.78
2022-07-29T17:24:38.168Z,99902.69
2022-07-29T17:27:06.054Z,99909.13
2022-07-29T17:29:34.918Z,99911.97
2022-07-29T17:32:01.879Z,99912.94
2022-07-29T17:34:28.728Z,99929.00
2022-07-29T17:36:55.949Z,99929.13
2022-07-29T17:39:23.104Z,99927.50
2022-07-29T17:41:50.138Z,99918.94
2022-07-29T17:44:17.615Z,99925.25
2022-07-29T17:46:44.807Z,99908.72
2022-07-29T17:49:11.779Z,99914.16
2022-07-29T17:51:38.917Z,99907.44
2022-07-29T17:54:05.818Z,99910.19
2022-07-29T17:56:32.841Z,99886.69
2022-07-29T17:59:01.602Z,99867.53
2022-07-29T18:01:28.900Z,99855.22
2022-07-29T18:03:59.809Z,99857.13
2022-07-29T18:06:27.041Z,99836.09
2022-07-29T18:08:53.969Z,99820.41
2022-07-29T18:11:21.049Z,99809.31
2022-07-29T18:13:48.280Z,99795.22
2022-07-29T18:16:15.997Z,99805.13
2022-07-29T18:18:44.335Z,99780.66
2022-07-29T18:21:11.225Z,99770.28
2022-07-29T18:23:38.385Z,99745.16
2022-07-29T18:26:05.379Z,99737.38
2022-07-29T18:28:32.899Z,99731.38
2022-07-29T18:31:00.811Z,99715.72
2022-07-29T18:33:27.900Z,99695.78
2022-07-29T18:36:07.688Z,99687.19
2022-07-29T18:38:38.755Z,99675.22
2022-07-29T18:41:05.598Z,99656.03
2022-07-29T18:43:32.421Z,99636.28
2022-07-29T18:45:59.298Z,99624.25
2022-07-29T18:48:26.140Z,99597.25
2022-07-29T18:50:53.048Z,99585.91
2022-07-29T18:53:20.000Z,99584.31
2022-07-29T18:55:46.897Z,99571.34
2022-07-29T18:58:13.806Z,99567.00
2022-07-29T19:00:40.717Z,99568.19
2022-07-29T19:03:08.954Z,99557.75
2022-07-29T19:05:35.939Z,99563.13
2022-07-29T19:08:02.865Z,99562.50
2022-07-29T19:10:30.470Z,99554.63
2022-07-29T19:12:57.910Z,99552.13
2022-07-29T19:15:25.384Z,99552.22
2022-07-29T19:17:52.343Z,99549.63
2022-07-29T19:20:19.227Z,99549.81
2022-07-29T19:22:46.102Z,99547.06
2022-07-29T19:25:13.340Z,99548.91
2022-07-29T19:27:42.054Z,99538.50
2022-07-29T19:30:09.644Z,99546.34
2022-07-29T19:32:37.405Z,99546.44
2022-07-29T19:35:23.679Z,99543.94
2022-07-29T19:37:52.285Z,99544.88
2022-07-29T19:40:19.701Z,99544.88
2022-07-29T19:42:48.255Z,99547.44
2022-07-29T19:45:15.159Z,99547.56
2022-07-29T19:47:41.973Z,99548.66
2022-07-29T19:50:09.811Z,99547.81
2022-07-29T19:52:36.861Z,99543.63
2022-07-29T19:55:07.551Z,99542.72
2022-07-29T19:57:40.769Z,99548.88
2022-07-29T20:00:11.144Z,99553.34
2022-07-29T20:02:40.152Z,99549.03
2022-07-29T20:05:08.352Z,99543.03
2022-07-29T20:07:35.802Z,99538.75
2022-07-29T20:10:02.968Z,99546.72
2022-07-29T20:12:30.484Z,99551.03
2022-07-29T20:14:57.835Z,99549.47
2022-07-29T20:17:24.902Z,99552.09
2022-07-29T20:19:53.056Z,99551.25
2022-07-29T20:22:21.032Z,99554.75
2022-07-29T20:24:48.616Z,99555.75
2022-07-29T20:27:15.466Z,99558.47
2022-07-29T20:29:42.400Z,99547.97
2022-07-29T20:32:09.332Z,99559.44
2022-07-29T20:34:36.205Z,99560.47
2022-07-29T20:37:03.246Z,99562.25
2022-07-29T20:39:30.486Z,99565.78
2022-07-29T20:41:57.325Z,99561.56
2022-07-29T20:44:24.461Z,99567.72
2022-07-29T20:46:51.347Z,99571.25
2022-07-29T20:49:18.216Z,99572.94
2022-07-29T20:51:45.062Z,99576.63
2022-07-29T20:54:12.728Z,99576.84
2022-07-29T20:56:39.722Z,99581.41
2022-07-29T20:59:06.594Z,99594.63
2022-07-29T21:01:33.829Z,99581.56
2022-07-29T21:04:01.979Z,99588.59
2022-07-29T21:06:29.769Z,99597.47
2022-07-29T21:08:58.029Z,99592.44
2022-07-29T21:11:44.601Z,99592.53
2022-07-29T21:14:29.885Z,99607.38
2022-07-29T21:16:57.093Z,99608.28
2022-07-29T21:19:24.106Z,99605.66
2022-07-29T21:21:51.139Z,99613.59
2022-07-29T21:24:19.159Z,99611.97
2022-07-29T21:26:50.718Z,99612.94
2022-07-29T21:29:26.813Z,99613.03
2022-07-29T21:31:53.652Z,99616.47
2022-07-29T21:34:20.454Z,99617.50
2022-07-29T21:36:48.774Z,99615.09
2022-07-29T21:39:15.865Z,99628.25
2022-07-29T21:41:42.700Z,99625.75
2022-07-29T21:44:09.670Z,99618.06
2022-07-29T21:46:36.780Z,99623.50
2022-07-29T21:49:03.799Z,99628.84
2022-07-29T21:51:30.867Z,99629.81
2022-07-29T21:53:57.763Z,99631.69
2022-07-29T21:56:27.881Z,99633.56
2022-07-29T21:58:55.271Z,99627.50
2022-07-29T22:01:22.761Z,99632.88
2022-07-29T22:03:49.694Z,99639.16
2022-07-29T22:06:16.707Z,99631.28
2022-07-29T22:08:45.798Z,99638.28
2022-07-29T22:11:13.335Z,99638.34
2022-07-29T22:13:40.336Z,99634.06
2022-07-29T22:16:07.631Z,99639.31
2022-07-29T22:18:34.491Z,99641.16
2022-07-29T22:21:01.490Z,99642.97
2022-07-29T22:23:28.345Z,99640.34
2022-07-29T22:25:55.210Z,99642.97
2022-07-29T22:28:22.047Z,99639.50
2022-07-29T22:30:48.864Z,99644.78
2022-07-29T22:33:17.798Z,99651.91
2022-07-29T22:35:48.331Z,99648.59
2022-07-29T22:38:17.600Z,99650.38
2022-07-29T22:40:44.450Z,99652.13
2022-07-29T22:43:11.334Z,99662.78
2022-07-29T22:45:38.526Z,99657.56
2022-07-29T22:48:06.041Z,99659.34
2022-07-29T22:50:33.059Z,99655.09
2022-07-29T22:52:59.893Z,99654.38
2022-07-29T22:55:26.709Z,99660.63
2022-07-29T22:57:53.681Z,99669.44
2022-07-29T23:00:20.580Z,99670.28
2022-07-29T23:02:47.686Z,99670.28
2022-07-29T23:05:15.937Z,99679.78
2022-07-29T23:07:43.128Z,99678.19
2022-07-29T23:10:10.365Z,99684.28
2022-07-29T23:12:37.327Z,99686.88
2022-07-29T23:15:05.452Z,99683.50
2022-07-29T23:17:36.690Z,99680.91
2022-07-29T23:20:06.801Z,99680.16
2022-07-29T23:22:34.112Z,99677.69
2022-07-29T23:25:00.967Z,99674.16
2022-07-29T23:27:27.870Z,99677.84
2022-07-29T23:29:54.682Z,99676.31
2022-07-29T23:32:21.508Z,99685.00
2022-07-29T23:34:48.382Z,99679.91
2022-07-29T23:37:15.192Z,99680.00
2022-07-29T23:39:42.050Z,99680.97
2022-07-29T23:42:09.872Z,99674.97
2022-07-29T23:44:36.758Z,99679.41
2022-07-29T23:47:04.088Z,99680.41
2022-07-29T23:49:31.274Z,99682.38
2022-07-29T23:51:58.081Z,99678.97
2022-07-29T23:54:24.914Z,99673.63
2022-07-29T23:56:51.742Z,99677.13
2022-07-29T23:59:18.553Z,99678.75
